createdAt,value
2018-07-31T00:02:14.830Z,9.01
2018-07-31T00:08:09.759Z,9.03
2018-07-31T00:14:04.770Z,9.71
2018-07-31T00:19:59.788Z,10.5
2018-07-31T00:43:39.780Z,9.76
2018-07-31T00:43:39.975Z,12.84
2018-07-31T00:43:39.975Z,9.62
2018-07-31T00:43:40.044Z,9.62
2018-07-31T00:49:34.769Z,9.82
2018-07-31T00:55:29.811Z,10.43
2018-07-31T01:01:24.801Z,9.35
2018-07-31T01:07:19.827Z,9.67
2018-07-31T01:13:14.790Z,9.55
2018-07-31T01:19:09.796Z,10.15
2018-07-31T01:25:04.777Z,9.95
2018-07-31T01:30:59.823Z,7.88
2018-07-31T01:36:54.789Z,8.53
2018-07-31T01:42:49.846Z,7.27
2018-07-31T01:48:44.780Z,8.36
2018-07-31T01:54:39.825Z,8.7
2018-07-31T02:00:34.833Z,9.35
2018-07-31T02:06:29.869Z,7.3
2018-07-31T02:12:24.830Z,8.07
2018-07-31T02:18:19.801Z,9.24
2018-07-31T02:24:14.799Z,8.78
2018-07-31T02:30:09.804Z,10.31
2018-07-31T02:36:04.813Z,8.37
2018-07-31T02:41:59.815Z,8.09
2018-07-31T02:47:54.889Z,8.46
2018-07-31T02:53:49.812Z,8.94
2018-07-31T02:59:44.819Z,7.78
2018-07-31T03:05:39.820Z,7.38
2018-07-31T03:11:34.804Z,8.16
2018-07-31T03:17:29.813Z,6.52
2018-07-31T03:41:09.837Z,10.2
2018-07-31T03:41:09.912Z,7.73
2018-07-31T03:41:09.924Z,7.73
2018-07-31T03:41:09.959Z,7.73
2018-07-31T03:47:04.809Z,8.04
2018-07-31T03:52:59.823Z,8.18
2018-07-31T03:58:54.826Z,9.03
2018-07-31T04:04:49.807Z,13.46
2018-07-31T04:10:44.838Z,7.81
2018-07-31T04:16:39.835Z,9.52
2018-07-31T04:22:34.847Z,11.5
2018-07-31T04:28:29.887Z,7.61
2018-07-31T04:34:24.890Z,7.91
2018-07-31T04:40:19.934Z,9.37
2018-07-31T04:46:14.866Z,10.34
2018-07-31T04:52:09.869Z,9.06
2018-07-31T04:58:04.896Z,9.84
2018-07-31T05:03:59.841Z,11.69
2018-07-31T05:09:54.891Z,12.85
2018-07-31T05:15:49.852Z,13.87
2018-07-31T05:21:44.861Z,15
2018-07-31T05:27:39.847Z,15.3
2018-07-31T05:33:35.014Z,14.24
2018-07-31T05:39:29.879Z,13.37
2018-07-31T05:45:24.874Z,10.38
2018-07-31T05:51:19.862Z,11.43
2018-07-31T05:57:14.930Z,15.39
2018-07-31T06:03:09.894Z,18
2018-07-31T06:09:04.932Z,18.58
2018-07-31T06:14:59.863Z,18.99
2018-07-31T06:20:54.894Z,17.52
2018-07-31T06:44:34.883Z,16.47
2018-07-31T06:44:34.998Z,18.06
2018-07-31T06:44:35.013Z,15.53
2018-07-31T06:44:35.042Z,17.39
2018-07-31T06:50:29.904Z,14.58
2018-07-31T06:56:24.900Z,14.8
2018-07-31T07:02:19.874Z,16.44
2018-07-31T07:08:14.896Z,16.69
2018-07-31T07:14:09.908Z,17.61
2018-07-31T07:20:04.885Z,14.38
2018-07-31T07:25:59.893Z,16.82
2018-07-31T07:31:54.942Z,16.6
2018-07-31T07:37:49.917Z,17.58
2018-07-31T07:43:44.920Z,13.61
2018-07-31T07:49:39.943Z,11.34
2018-07-31T07:55:34.963Z,11.17
2018-07-31T08:01:29.914Z,11.4
2018-07-31T08:07:24.913Z,16.23
2018-07-31T08:13:19.894Z,11.7
2018-07-31T08:19:14.965Z,12.09
2018-07-31T08:25:09.949Z,8.28
2018-07-31T08:31:04.906Z,12.26
2018-07-31T08:36:59.943Z,12.45
2018-07-31T08:42:54.939Z,12.06
2018-07-31T08:48:49.943Z,12.95
2018-07-31T08:54:44.945Z,11.85
2018-07-31T09:00:39.934Z,9.87
2018-07-31T09:06:34.960Z,10.37
2018-07-31T09:12:29.930Z,8.15
2018-07-31T09:18:24.985Z,10.73
2018-07-31T09:42:05.000Z,12.54
2018-07-31T09:42:05.107Z,6.42
2018-07-31T09:42:05.115Z,6.42
2018-07-31T09:42:05.225Z,6.42
2018-07-31T09:48:00.059Z,8.6
2018-07-31T09:53:54.972Z,7.53
2018-07-31T09:59:49.957Z,9.23
2018-07-31T10:05:44.972Z,8.1
2018-07-31T10:11:39.986Z,8.77
2018-07-31T10:17:35.010Z,7.73
2018-07-31T10:23:29.971Z,9.9
2018-07-31T10:29:24.993Z,7.68
2018-07-31T10:35:20.004Z,9.14
2018-07-31T10:41:15.024Z,10.79
2018-07-31T10:47:10.020Z,6.61
2018-07-31T10:53:04.997Z,8.67
2018-07-31T10:58:59.981Z,7.01
2018-07-31T11:04:55.022Z,7.21
2018-07-31T11:10:49.995Z,7.51
2018-07-31T11:16:45.020Z,8.32
2018-07-31T11:22:40.002Z,7.61
2018-07-31T11:28:35.057Z,8.32
2018-07-31T11:34:30.032Z,6.16
2018-07-31T11:40:25.048Z,6.9
2018-07-31T11:46:20.010Z,7.17
2018-07-31T11:52:15.078Z,6.1
2018-07-31T11:58:10.060Z,7.45
2018-07-31T12:04:05.122Z,7.84
2018-07-31T12:10:00.098Z,6.95
2018-07-31T12:15:55.042Z,6.12
2018-07-31T12:21:50.016Z,6.89
2018-07-31T12:45:30.085Z,8.08
2018-07-31T12:45:30.282Z,6.51
2018-07-31T12:45:30.286Z,6.51
2018-07-31T12:45:30.373Z,6.51
2018-07-31T12:51:25.024Z,11.04
2018-07-31T12:57:20.059Z,8.9
2018-07-31T13:03:15.044Z,7.41
2018-07-31T13:09:10.038Z,7.87
2018-07-31T13:15:05.068Z,6.63
2018-07-31T13:21:00.048Z,5.86
2018-07-31T13:26:55.090Z,7.74
2018-07-31T13:32:50.062Z,7.84
2018-07-31T13:38:45.078Z,6.64
2018-07-31T13:44:40.053Z,6.38
2018-07-31T13:50:35.053Z,6.44
2018-07-31T13:56:30.062Z,7.09
2018-07-31T14:02:25.082Z,6.74
2018-07-31T14:08:20.076Z,7.25
2018-07-31T14:14:15.055Z,9.21
2018-07-31T14:20:10.086Z,7.61
2018-07-31T14:26:05.067Z,6.65
2018-07-31T14:32:00.091Z,8.34
2018-07-31T14:37:55.094Z,7.18
2018-07-31T14:43:50.106Z,7.9
2018-07-31T14:49:45.138Z,6.82
2018-07-31T14:55:43.294Z,7.45
2018-07-31T15:01:35.264Z,8.65
2018-07-31T15:07:30.113Z,7.11
2018-07-31T15:13:25.099Z,8.23
2018-07-31T15:19:20.103Z,9.3
2018-07-31T15:43:05.164Z,7.77
2018-07-31T15:43:05.191Z,7.77
2018-07-31T15:43:05.209Z,7.77
2018-07-31T15:43:08.252Z,7.61
2018-07-31T15:49:03.465Z,7.45
2018-07-31T16:13:08.160Z,7.41
2018-07-31T16:13:08.223Z,7.41
2018-07-31T16:13:16.323Z,7.41
2018-07-31T16:18:36.921Z,9.25
2018-07-31T16:24:26.390Z,6.6
2018-07-31T16:30:28.256Z,8.14
2018-07-31T16:36:24.892Z,8.23
2018-07-31T16:42:18.231Z,7.2
2018-07-31T16:48:16.608Z,7
2018-07-31T16:54:08.314Z,6.15
2018-07-31T17:00:03.261Z,6.17
2018-07-31T17:05:58.262Z,7.26
2018-07-31T17:11:53.304Z,7.64
2018-07-31T17:17:48.358Z,8.14
2018-07-31T17:23:43.328Z,9.86
2018-07-31T17:29:38.227Z,14.04
2018-07-31T17:35:33.385Z,8.1
2018-07-31T17:41:28.316Z,8.55
2018-07-31T17:47:23.312Z,7.57
2018-07-31T17:53:18.305Z,7.42
2018-07-31T17:59:13.408Z,9.58
2018-07-31T18:05:08.257Z,6.13
2018-07-31T18:11:03.325Z,9.22
2018-07-31T18:16:58.388Z,9.5
2018-07-31T18:22:53.304Z,7.56
2018-07-31T18:46:25.220Z,7.69
2018-07-31T18:46:25.241Z,8.35
2018-07-31T18:46:25.262Z,8.35
2018-07-31T18:46:25.279Z,8.35
2018-07-31T18:52:20.197Z,7.03
2018-07-31T18:58:15.274Z,8.37
2018-07-31T19:04:10.235Z,10.77
2018-07-31T19:10:05.196Z,7.69
2018-07-31T19:16:00.205Z,7.86
2018-07-31T19:21:55.222Z,7.49
2018-07-31T19:27:50.232Z,6.68
2018-07-31T19:33:45.221Z,10.51
2018-07-31T19:39:40.267Z,7.08
2018-07-31T19:45:35.291Z,8.47
2018-07-31T19:51:30.293Z,6.68
2018-07-31T19:57:25.223Z,8.76
2018-07-31T20:03:20.252Z,6.92
2018-07-31T20:09:15.267Z,8.81
2018-07-31T20:15:10.253Z,8.09
2018-07-31T20:21:05.270Z,8.53
2018-07-31T20:27:00.226Z,8.11
2018-07-31T20:32:55.258Z,6.91
2018-07-31T20:38:50.263Z,9.59
2018-07-31T20:44:45.290Z,7.14
2018-07-31T20:50:40.246Z,7.54
2018-07-31T20:56:35.247Z,8.09
2018-07-31T21:02:30.259Z,7.87
2018-07-31T21:08:25.272Z,7.07
2018-07-31T21:14:20.303Z,9.32
2018-07-31T21:20:15.257Z,6.45
2018-07-31T21:43:55.265Z,7.45
2018-07-31T21:43:55.387Z,9.79
2018-07-31T21:43:55.402Z,9.79
2018-07-31T21:43:55.452Z,9.79
2018-07-31T21:49:50.294Z,9.47
2018-07-31T21:55:45.286Z,7.51
2018-07-31T22:01:40.278Z,8.67
2018-07-31T22:07:35.294Z,10.39
2018-07-31T22:13:30.316Z,7.43
2018-07-31T22:19:25.300Z,9.13
2018-07-31T22:25:20.306Z,8.75
2018-07-31T22:31:15.270Z,8.95
2018-07-31T22:37:10.268Z,11.57
2018-07-31T22:43:05.274Z,10.33
2018-07-31T22:49:00.290Z,9.66
2018-07-31T22:54:55.312Z,10.86
2018-07-31T23:00:50.345Z,9.49
2018-07-31T23:06:45.373Z,12.76
2018-07-31T23:12:40.508Z,9.64
2018-07-31T23:18:35.365Z,10.19
2018-07-31T23:24:30.389Z,9.89
2018-07-31T23:30:25.320Z,11.13
2018-07-31T23:36:20.309Z,7.99
2018-07-31T23:42:15.337Z,9.56
2018-07-31T23:48:10.356Z,8.52
2018-07-31T23:54:05.305Z,8.59
